sensor_id;sensor_type;location;lat;lon;timestamp;P1;durP1;ratioP1;P2;durP2;ratioP2
59161;SDS011;44942;48.936;8.260;2023-08-17T00:00:59;1.80;;;1.70;;
59161;SDS011;44942;48.936;8.260;2023-08-17T00:11:00;1.87;;;1.70;;
59161;SDS011;44942;48.936;8.260;2023-08-17T00:21:02;1.83;;;1.70;;
59161;SDS011;44942;48.936;8.260;2023-08-17T00:26:03;1.70;;;1.60;;
59161;SDS011;44942;48.936;8.260;2023-08-17T00:36:04;1.93;;;1.73;;
59161;SDS011;44942;48.936;8.260;2023-08-17T00:46:05;1.90;;;1.70;;
59161;SDS011;44942;48.936;8.260;2023-08-17T00:51:06;1.80;;;1.70;;
59161;SDS011;44942;48.936;8.260;2023-08-17T01:01:08;1.52;;;1.42;;
59161;SDS011;44942;48.936;8.260;2023-08-17T01:06:09;1.70;;;1.60;;
59161;SDS011;44942;48.936;8.260;2023-08-17T01:11:26;1.60;;;1.50;;
59161;SDS011;44942;48.936;8.260;2023-08-17T01:16:40;1.65;;;1.55;;
59161;SDS011;44942;48.936;8.260;2023-08-17T01:21:50;1.67;;;1.58;;
59161;SDS011;44942;48.936;8.260;2023-08-17T01:26:54;1.60;;;1.50;;
59161;SDS011;44942;48.936;8.260;2023-08-17T01:36:58;1.60;;;1.50;;
59161;SDS011;44942;48.936;8.260;2023-08-17T01:42:01;1.55;;;1.45;;
59161;SDS011;44942;48.936;8.260;2023-08-17T01:47:02;1.70;;;1.60;;
59161;SDS011;44942;48.936;8.260;2023-08-17T01:52:03;1.50;;;1.40;;
59161;SDS011;44942;48.936;8.260;2023-08-17T02:02:04;1.77;;;1.67;;
59161;SDS011;44942;48.936;8.260;2023-08-17T02:12:05;1.53;;;1.43;;
59161;SDS011;44942;48.936;8.260;2023-08-17T02:22:08;1.67;;;1.58;;
59161;SDS011;44942;48.936;8.260;2023-08-17T02:32:09;1.60;;;1.50;;
59161;SDS011;44942;48.936;8.260;2023-08-17T02:37:10;1.88;;;1.60;;
59161;SDS011;44942;48.936;8.260;2023-08-17T02:42:10;1.40;;;1.30;;
59161;SDS011;44942;48.936;8.260;2023-08-17T02:47:11;1.40;;;1.30;;
59161;SDS011;44942;48.936;8.260;2023-08-17T02:57:12;1.60;;;1.40;;
59161;SDS011;44942;48.936;8.260;2023-08-17T03:02:13;1.50;;;1.40;;
59161;SDS011;44942;48.936;8.260;2023-08-17T03:12:14;1.50;;;1.40;;
59161;SDS011;44942;48.936;8.260;2023-08-17T03:22:15;1.50;;;1.40;;
59161;SDS011;44942;48.936;8.260;2023-08-17T03:32:16;2.63;;;1.27;;
59161;SDS011;44942;48.936;8.260;2023-08-17T03:37:17;1.60;;;1.50;;
59161;SDS011;44942;48.936;8.260;2023-08-17T03:47:18;2.13;;;1.53;;
59161;SDS011;44942;48.936;8.260;2023-08-17T03:57:19;1.90;;;1.60;;
59161;SDS011;44942;48.936;8.260;2023-08-17T04:07:21;1.50;;;1.40;;
59161;SDS011;44942;48.936;8.260;2023-08-17T04:12:22;2.00;;;1.42;;
59161;SDS011;44942;48.936;8.260;2023-08-17T04:22:23;1.53;;;1.43;;
59161;SDS011;44942;48.936;8.260;2023-08-17T04:32:24;1.40;;;1.30;;
59161;SDS011;44942;48.936;8.260;2023-08-17T04:42:25;1.60;;;1.50;;
59161;SDS011;44942;48.936;8.260;2023-08-17T04:47:27;1.55;;;1.40;;
59161;SDS011;44942;48.936;8.260;2023-08-17T04:57:28;1.37;;;1.27;;
59161;SDS011;44942;48.936;8.260;2023-08-17T05:07:29;2.40;;;1.33;;
59161;SDS011;44942;48.936;8.260;2023-08-17T05:17:30;1.63;;;1.53;;
59161;SDS011;44942;48.936;8.260;2023-08-17T05:22:31;1.40;;;1.30;;
59161;SDS011;44942;48.936;8.260;2023-08-17T05:32:32;1.67;;;1.50;;
59161;SDS011;44942;48.936;8.260;2023-08-17T05:42:33;1.67;;;1.20;;
59161;SDS011;44942;48.936;8.260;2023-08-17T05:52:34;1.43;;;1.33;;
59161;SDS011;44942;48.936;8.260;2023-08-17T06:02:35;1.60;;;1.50;;
59161;SDS011;44942;48.936;8.260;2023-08-17T06:12:36;1.47;;;1.30;;
59161;SDS011;44942;48.936;8.260;2023-08-17T06:22:37;1.10;;;1.10;;
59161;SDS011;44942;48.936;8.260;2023-08-17T06:32:41;1.58;;;1.48;;
59161;SDS011;44942;48.936;8.260;2023-08-17T06:42:42;1.40;;;1.30;;
59161;SDS011;44942;48.936;8.260;2023-08-17T06:47:42;1.20;;;1.10;;
59161;SDS011;44942;48.936;8.260;2023-08-17T06:57:44;1.40;;;1.30;;
59161;SDS011;44942;48.936;8.260;2023-08-17T07:07:45;1.30;;;1.20;;
59161;SDS011;44942;48.936;8.260;2023-08-17T07:12:48;1.75;;;1.17;;
59161;SDS011;44942;48.936;8.260;2023-08-17T07:22:49;1.60;;;1.50;;
59161;SDS011;44942;48.936;8.260;2023-08-17T07:32:50;1.47;;;1.37;;
59161;SDS011;44942;48.936;8.260;2023-08-17T07:42:51;1.30;;;1.20;;
59161;SDS011;44942;48.936;8.260;2023-08-17T07:52:52;1.30;;;1.20;;
59161;SDS011;44942;48.936;8.260;2023-08-17T08:02:53;1.37;;;1.20;;
59161;SDS011;44942;48.936;8.260;2023-08-17T08:12:55;1.47;;;1.30;;
59161;SDS011;44942;48.936;8.260;2023-08-17T08:17:55;1.50;;;1.40;;
59161;SDS011;44942;48.936;8.260;2023-08-17T08:27:56;1.73;;;1.50;;
59161;SDS011;44942;48.936;8.260;2023-08-17T08:42:59;1.20;;;1.10;;
59161;SDS011;44942;48.936;8.260;2023-08-17T08:53:02;1.48;;;1.38;;
59161;SDS011;44942;48.936;8.260;2023-08-17T08:58:06;1.40;;;1.30;;
59161;SDS011;44942;48.936;8.260;2023-08-17T09:03:07;1.33;;;1.23;;
59161;SDS011;44942;48.936;8.260;2023-08-17T09:08:09;1.50;;;1.40;;
59161;SDS011;44942;48.936;8.260;2023-08-17T09:13:11;1.25;;;1.15;;
59161;SDS011;44942;48.936;8.260;2023-08-17T09:23:16;1.53;;;1.30;;
59161;SDS011;44942;48.936;8.260;2023-08-17T09:28:19;1.45;;;1.30;;
59161;SDS011;44942;48.936;8.260;2023-08-17T09:38:21;1.73;;;1.40;;
59161;SDS011;44942;48.936;8.260;2023-08-17T09:43:22;1.70;;;1.50;;
59161;SDS011;44942;48.936;8.260;2023-08-17T09:53:24;1.50;;;1.40;;
59161;SDS011;44942;48.936;8.260;2023-08-17T10:03:25;1.40;;;1.30;;
59161;SDS011;44942;48.936;8.260;2023-08-17T10:08:28;1.33;;;1.23;;
59161;SDS011;44942;48.936;8.260;2023-08-17T10:13:34;2.05;;;1.50;;
59161;SDS011;44942;48.936;8.260;2023-08-17T10:23:54;1.30;;;1.20;;
59161;SDS011;44942;48.936;8.260;2023-08-17T10:28:56;1.40;;;1.30;;
59161;SDS011;44942;48.936;8.260;2023-08-17T10:33:58;1.40;;;1.30;;
59161;SDS011;44942;48.936;8.260;2023-08-17T10:39:19;1.30;;;1.20;;
59161;SDS011;44942;48.936;8.260;2023-08-17T10:44:41;1.77;;;1.52;;
59161;SDS011;44942;48.936;8.260;2023-08-17T10:49:45;1.58;;;1.48;;
59161;SDS011;44942;48.936;8.260;2023-08-17T10:54:47;1.30;;;1.20;;
59161;SDS011;44942;48.936;8.260;2023-08-17T11:05:05;1.67;;;1.55;;
59161;SDS011;44942;48.936;8.260;2023-08-17T11:10:10;1.40;;;1.30;;
59161;SDS011;44942;48.936;8.260;2023-08-17T11:15:35;1.15;;;1.10;;
59161;SDS011;44942;48.936;8.260;2023-08-17T11:20:43;1.40;;;1.30;;
59161;SDS011;44942;48.936;8.260;2023-08-17T11:30:45;1.50;;;1.40;;
59161;SDS011;44942;48.936;8.260;2023-08-17T11:40:49;1.45;;;1.35;;
59161;SDS011;44942;48.936;8.260;2023-08-17T11:50:51;1.48;;;1.38;;
59161;SDS011;44942;48.936;8.260;2023-08-17T11:55:52;2.85;;;1.67;;
59161;SDS011;44942;48.936;8.260;2023-08-17T12:00:54;1.50;;;1.40;;
59161;SDS011;44942;48.936;8.260;2023-08-17T12:05:55;1.52;;;1.42;;
59161;SDS011;44942;48.936;8.260;2023-08-17T12:15:56;1.53;;;1.43;;
59161;SDS011;44942;48.936;8.260;2023-08-17T12:20:58;1.60;;;1.50;;
59161;SDS011;44942;48.936;8.260;2023-08-17T12:31:01;2.20;;;1.77;;
59161;SDS011;44942;48.936;8.260;2023-08-17T12:36:02;1.70;;;1.60;;
59161;SDS011;44942;48.936;8.260;2023-08-17T12:41:04;1.73;;;1.63;;
59161;SDS011;44942;48.936;8.260;2023-08-17T12:51:05;1.50;;;1.40;;
59161;SDS011;44942;48.936;8.260;2023-08-17T13:01:06;1.60;;;1.50;;
59161;SDS011;44942;48.936;8.260;2023-08-17T13:11:07;1.70;;;1.60;;
59161;SDS011;44942;48.936;8.260;2023-08-17T13:21:08;1.73;;;1.63;;
59161;SDS011;44942;48.936;8.260;2023-08-17T13:31:09;1.90;;;1.80;;
59161;SDS011;44942;48.936;8.260;2023-08-17T13:41:11;1.90;;;1.80;;
59161;SDS011;44942;48.936;8.260;2023-08-17T13:51:12;1.83;;;1.73;;
59161;SDS011;44942;48.936;8.260;2023-08-17T14:01:13;1.60;;;1.50;;
59161;SDS011;44942;48.936;8.260;2023-08-17T14:06:14;2.05;;;1.95;;
59161;SDS011;44942;48.936;8.260;2023-08-17T14:11:15;2.08;;;1.98;;
59161;SDS011;44942;48.936;8.260;2023-08-17T14:21:16;1.60;;;1.50;;
59161;SDS011;44942;48.936;8.260;2023-08-17T14:31:17;2.30;;;2.10;;
59161;SDS011;44942;48.936;8.260;2023-08-17T14:41:18;2.20;;;2.00;;
59161;SDS011;44942;48.936;8.260;2023-08-17T14:46:19;2.78;;;2.10;;
59161;SDS011;44942;48.936;8.260;2023-08-17T14:51:20;2.20;;;2.00;;
59161;SDS011;44942;48.936;8.260;2023-08-17T15:06:23;1.90;;;1.70;;
59161;SDS011;44942;48.936;8.260;2023-08-17T15:11:24;2.20;;;2.00;;
59161;SDS011;44942;48.936;8.260;2023-08-17T15:21:27;2.30;;;2.08;;
59161;SDS011;44942;48.936;8.260;2023-08-17T15:31:28;2.43;;;2.00;;
59161;SDS011;44942;48.936;8.260;2023-08-17T15:36:28;2.40;;;2.20;;
59161;SDS011;44942;48.936;8.260;2023-08-17T15:46:29;2.37;;;2.10;;
59161;SDS011;44942;48.936;8.260;2023-08-17T15:51:30;2.15;;;2.05;;
59161;SDS011;44942;48.936;8.260;2023-08-17T15:56:31;2.67;;;2.47;;
59161;SDS011;44942;48.936;8.260;2023-08-17T16:06:32;2.37;;;2.17;;
59161;SDS011;44942;48.936;8.260;2023-08-17T16:11:33;2.20;;;2.10;;
59161;SDS011;44942;48.936;8.260;2023-08-17T16:21:34;2.40;;;2.20;;
59161;SDS011;44942;48.936;8.260;2023-08-17T16:31:35;4.07;;;2.40;;
59161;SDS011;44942;48.936;8.260;2023-08-17T16:41:36;2.23;;;2.03;;
59161;SDS011;44942;48.936;8.260;2023-08-17T16:51:37;2.23;;;2.10;;
59161;SDS011;44942;48.936;8.260;2023-08-17T17:01:43;2.28;;;2.10;;
59161;SDS011;44942;48.936;8.260;2023-08-17T17:11:44;2.37;;;2.27;;
59161;SDS011;44942;48.936;8.260;2023-08-17T17:16:44;2.38;;;2.20;;
59161;SDS011;44942;48.936;8.260;2023-08-17T17:21:45;2.25;;;2.10;;
59161;SDS011;44942;48.936;8.260;2023-08-17T17:26:46;2.33;;;2.13;;
59161;SDS011;44942;48.936;8.260;2023-08-17T17:36:47;2.00;;;1.90;;
59161;SDS011;44942;48.936;8.260;2023-08-17T17:41:49;2.38;;;2.17;;
59161;SDS011;44942;48.936;8.260;2023-08-17T17:51:50;2.40;;;2.20;;
59161;SDS011;44942;48.936;8.260;2023-08-17T18:01:51;2.10;;;2.00;;
59161;SDS011;44942;48.936;8.260;2023-08-17T18:06:51;2.40;;;2.20;;
59161;SDS011;44942;48.936;8.260;2023-08-17T18:16:52;2.03;;;1.93;;
59161;SDS011;44942;48.936;8.260;2023-08-17T18:21:53;2.30;;;2.10;;
59161;SDS011;44942;48.936;8.260;2023-08-17T18:26:53;2.60;;;2.40;;
59161;SDS011;44942;48.936;8.260;2023-08-17T18:31:54;2.33;;;2.13;;
59161;SDS011;44942;48.936;8.260;2023-08-17T18:36:54;2.38;;;2.17;;
59161;SDS011;44942;48.936;8.260;2023-08-17T18:46:55;2.20;;;2.00;;
59161;SDS011;44942;48.936;8.260;2023-08-17T18:56:56;2.23;;;2.10;;
59161;SDS011;44942;48.936;8.260;2023-08-17T19:06:57;2.50;;;2.30;;
59161;SDS011;44942;48.936;8.260;2023-08-17T19:16:58;2.60;;;2.40;;
59161;SDS011;44942;48.936;8.260;2023-08-17T19:26:59;2.50;;;2.30;;
59161;SDS011;44942;48.936;8.260;2023-08-17T19:37:01;2.20;;;2.10;;
59161;SDS011;44942;48.936;8.260;2023-08-17T19:42:02;2.30;;;2.10;;
59161;SDS011;44942;48.936;8.260;2023-08-17T19:47:03;2.30;;;2.10;;
59161;SDS011;44942;48.936;8.260;2023-08-17T19:52:05;2.35;;;2.15;;
59161;SDS011;44942;48.936;8.260;2023-08-17T19:57:05;2.38;;;2.17;;
59161;SDS011;44942;48.936;8.260;2023-08-17T20:02:06;2.42;;;2.22;;
59161;SDS011;44942;48.936;8.260;2023-08-17T20:07:06;2.70;;;2.50;;
59161;SDS011;44942;48.936;8.260;2023-08-17T20:17:07;2.53;;;2.33;;
59161;SDS011;44942;48.936;8.260;2023-08-17T20:27:08;2.67;;;2.17;;
59161;SDS011;44942;48.936;8.260;2023-08-17T20:32:09;2.42;;;2.22;;
59161;SDS011;44942;48.936;8.260;2023-08-17T20:42:10;2.40;;;2.20;;
59161;SDS011;44942;48.936;8.260;2023-08-17T20:47:12;2.88;;;2.67;;
59161;SDS011;44942;48.936;8.260;2023-08-17T20:52:13;2.50;;;2.30;;
59161;SDS011;44942;48.936;8.260;2023-08-17T20:57:14;2.58;;;2.38;;
59161;SDS011;44942;48.936;8.260;2023-08-17T21:02:15;2.58;;;2.38;;
59161;SDS011;44942;48.936;8.260;2023-08-17T21:12:16;2.60;;;2.40;;
59161;SDS011;44942;48.936;8.260;2023-08-17T21:22:17;2.43;;;2.30;;
59161;SDS011;44942;48.936;8.260;2023-08-17T21:32:18;2.63;;;2.43;;
59161;SDS011;44942;48.936;8.260;2023-08-17T21:42:24;2.95;;;2.65;;
59161;SDS011;44942;48.936;8.260;2023-08-17T21:47:24;2.28;;;2.08;;
59161;SDS011;44942;48.936;8.260;2023-08-17T21:57:25;2.73;;;2.53;;
